sensor_id;sensor_type;location;lat;lon;timestamp;P1;durP1;ratioP1;P2;durP2;ratioP2
21213;SDS011;10764;50.850;2.904;2023-10-19T00:01:16;1.88;;;0.40;;
21213;SDS011;10764;50.850;2.904;2023-10-19T00:03:44;1.37;;;0.40;;
21213;SDS011;10764;50.850;2.904;2023-10-19T00:06:11;1.10;;;0.40;;
21213;SDS011;10764;50.850;2.904;2023-10-19T00:08:38;1.17;;;0.30;;
21213;SDS011;10764;50.850;2.904;2023-10-19T00:11:08;0.98;;;0.40;;
21213;SDS011;10764;50.850;2.904;2023-10-19T00:13:36;1.20;;;0.45;;
21213;SDS011;10764;50.850;2.904;2023-10-19T00:16:05;2.13;;;0.50;;
21213;SDS011;10764;50.850;2.904;2023-10-19T00:18:49;1.02;;;0.30;;
21213;SDS011;10764;50.850;2.904;2023-10-19T00:21:16;0.88;;;0.40;;
21213;SDS011;10764;50.850;2.904;2023-10-19T00:23:43;1.52;;;0.60;;
21213;SDS011;10764;50.850;2.904;2023-10-19T00:26:10;1.40;;;0.50;;
21213;SDS011;10764;50.850;2.904;2023-10-19T00:28:46;1.00;;;0.30;;
21213;SDS011;10764;50.850;2.904;2023-10-19T00:31:16;1.90;;;0.40;;
21213;SDS011;10764;50.850;2.904;2023-10-19T00:33:46;1.27;;;0.50;;
21213;SDS011;10764;50.850;2.904;2023-10-19T00:36:13;1.13;;;0.50;;
21213;SDS011;10764;50.850;2.904;2023-10-19T00:38:41;1.55;;;0.30;;
21213;SDS011;10764;50.850;2.904;2023-10-19T00:41:26;2.10;;;0.40;;
21213;SDS011;10764;50.850;2.904;2023-10-19T00:43:57;1.00;;;0.40;;
21213;SDS011;10764;50.850;2.904;2023-10-19T00:46:38;2.00;;;0.50;;
21213;SDS011;10764;50.850;2.904;2023-10-19T00:49:11;0.90;;;0.40;;
21213;SDS011;10764;50.850;2.904;2023-10-19T00:51:43;1.23;;;0.45;;
21213;SDS011;10764;50.850;2.904;2023-10-19T00:54:46;1.63;;;0.50;;
21213;SDS011;10764;50.850;2.904;2023-10-19T00:57:18;1.48;;;0.40;;
21213;SDS011;10764;50.850;2.904;2023-10-19T01:00:02;1.58;;;0.50;;
21213;SDS011;10764;50.850;2.904;2023-10-19T01:02:41;1.83;;;0.45;;
21213;SDS011;10764;50.850;2.904;2023-10-19T01:05:12;2.03;;;0.50;;
21213;SDS011;10764;50.850;2.904;2023-10-19T01:07:40;1.00;;;0.30;;
21213;SDS011;10764;50.850;2.904;2023-10-19T01:10:07;1.60;;;0.55;;
21213;SDS011;10764;50.850;2.904;2023-10-19T01:12:38;2.00;;;0.60;;
21213;SDS011;10764;50.850;2.904;2023-10-19T01:15:13;1.53;;;0.30;;
21213;SDS011;10764;50.850;2.904;2023-10-19T01:17:55;2.00;;;0.40;;
21213;SDS011;10764;50.850;2.904;2023-10-19T01:20:31;1.13;;;0.50;;
21213;SDS011;10764;50.850;2.904;2023-10-19T01:22:59;1.33;;;0.60;;
21213;SDS011;10764;50.850;2.904;2023-10-19T01:28:28;1.53;;;0.40;;
21213;SDS011;10764;50.850;2.904;2023-10-19T01:31:18;1.90;;;0.40;;
21213;SDS011;10764;50.850;2.904;2023-10-19T01:33:59;2.70;;;0.57;;
21213;SDS011;10764;50.850;2.904;2023-10-19T01:36:33;1.60;;;0.40;;
21213;SDS011;10764;50.850;2.904;2023-10-19T01:39:09;1.73;;;0.52;;
21213;SDS011;10764;50.850;2.904;2023-10-19T01:41:37;1.10;;;0.40;;
21213;SDS011;10764;50.850;2.904;2023-10-19T01:44:07;1.35;;;0.40;;
21213;SDS011;10764;50.850;2.904;2023-10-19T01:46:34;1.50;;;0.50;;
21213;SDS011;10764;50.850;2.904;2023-10-19T01:49:03;1.25;;;0.40;;
21213;SDS011;10764;50.850;2.904;2023-10-19T01:51:31;1.15;;;0.40;;
21213;SDS011;10764;50.850;2.904;2023-10-19T01:53:59;1.40;;;0.45;;
21213;SDS011;10764;50.850;2.904;2023-10-19T01:56:29;2.08;;;0.50;;
21213;SDS011;10764;50.850;2.904;2023-10-19T01:58:56;1.90;;;0.50;;
21213;SDS011;10764;50.850;2.904;2023-10-19T02:01:27;1.90;;;0.55;;
21213;SDS011;10764;50.850;2.904;2023-10-19T02:03:55;1.67;;;0.52;;
21213;SDS011;10764;50.850;2.904;2023-10-19T02:06:32;2.58;;;0.40;;
21213;SDS011;10764;50.850;2.904;2023-10-19T02:09:07;2.03;;;0.60;;
21213;SDS011;10764;50.850;2.904;2023-10-19T02:12:01;2.28;;;0.50;;
21213;SDS011;10764;50.850;2.904;2023-10-19T02:14:28;1.90;;;0.60;;
21213;SDS011;10764;50.850;2.904;2023-10-19T02:16:57;1.00;;;0.40;;
21213;SDS011;10764;50.850;2.904;2023-10-19T02:19:27;1.15;;;0.43;;
21213;SDS011;10764;50.850;2.904;2023-10-19T02:21:59;1.35;;;0.45;;
21213;SDS011;10764;50.850;2.904;2023-10-19T02:24:30;1.70;;;0.45;;
21213;SDS011;10764;50.850;2.904;2023-10-19T02:26:58;1.50;;;0.60;;
21213;SDS011;10764;50.850;2.904;2023-10-19T02:29:27;1.55;;;0.50;;
21213;SDS011;10764;50.850;2.904;2023-10-19T02:31:54;1.45;;;0.30;;
21213;SDS011;10764;50.850;2.904;2023-10-19T02:34:23;2.08;;;0.55;;
21213;SDS011;10764;50.850;2.904;2023-10-19T02:36:51;1.50;;;0.45;;
21213;SDS011;10764;50.850;2.904;2023-10-19T02:39:18;2.35;;;0.70;;
21213;SDS011;10764;50.850;2.904;2023-10-19T02:41:46;2.67;;;0.60;;
21213;SDS011;10764;50.850;2.904;2023-10-19T02:44:20;1.63;;;0.40;;
21213;SDS011;10764;50.850;2.904;2023-10-19T02:46:52;1.27;;;0.40;;
21213;SDS011;10764;50.850;2.904;2023-10-19T02:49:32;1.85;;;0.57;;
21213;SDS011;10764;50.850;2.904;2023-10-19T02:52:04;1.75;;;0.52;;
21213;SDS011;10764;50.850;2.904;2023-10-19T02:54:31;1.98;;;0.50;;
21213;SDS011;10764;50.850;2.904;2023-10-19T02:57:02;2.45;;;0.50;;
21213;SDS011;10764;50.850;2.904;2023-10-19T02:59:33;3.05;;;0.70;;
21213;SDS011;10764;50.850;2.904;2023-10-19T03:02:01;1.17;;;0.43;;
21213;SDS011;10764;50.850;2.904;2023-10-19T03:04:44;1.30;;;0.40;;
21213;SDS011;10764;50.850;2.904;2023-10-19T03:07:12;1.58;;;0.47;;
21213;SDS011;10764;50.850;2.904;2023-10-19T03:09:40;2.65;;;0.52;;
21213;SDS011;10764;50.850;2.904;2023-10-19T03:12:15;2.72;;;0.60;;
21213;SDS011;10764;50.850;2.904;2023-10-19T03:14:43;1.73;;;0.50;;
21213;SDS011;10764;50.850;2.904;2023-10-19T03:17:12;2.05;;;0.50;;
21213;SDS011;10764;50.850;2.904;2023-10-19T03:19:40;1.57;;;0.50;;
21213;SDS011;10764;50.850;2.904;2023-10-19T03:22:07;1.45;;;0.50;;
21213;SDS011;10764;50.850;2.904;2023-10-19T03:24:34;0.93;;;0.40;;
21213;SDS011;10764;50.850;2.904;2023-10-19T03:27:03;2.05;;;0.45;;
21213;SDS011;10764;50.850;2.904;2023-10-19T03:29:43;1.63;;;0.43;;
21213;SDS011;10764;50.850;2.904;2023-10-19T03:32:21;2.10;;;0.60;;
21213;SDS011;10764;50.850;2.904;2023-10-19T03:34:56;1.90;;;0.50;;
21213;SDS011;10764;50.850;2.904;2023-10-19T03:37:24;2.00;;;0.45;;
21213;SDS011;10764;50.850;2.904;2023-10-19T03:39:52;2.22;;;0.52;;
21213;SDS011;10764;50.850;2.904;2023-10-19T03:42:23;2.17;;;0.55;;
21213;SDS011;10764;50.850;2.904;2023-10-19T03:44:52;1.80;;;0.70;;
21213;SDS011;10764;50.850;2.904;2023-10-19T03:47:23;1.65;;;0.50;;
21213;SDS011;10764;50.850;2.904;2023-10-19T03:50:05;2.40;;;0.60;;
21213;SDS011;10764;50.850;2.904;2023-10-19T03:52:35;2.53;;;0.60;;
21213;SDS011;10764;50.850;2.904;2023-10-19T03:55:04;1.95;;;0.50;;
21213;SDS011;10764;50.850;2.904;2023-10-19T03:57:37;2.50;;;0.55;;
21213;SDS011;10764;50.850;2.904;2023-10-19T04:00:13;1.53;;;0.53;;
21213;SDS011;10764;50.850;2.904;2023-10-19T04:02:44;2.28;;;0.60;;
21213;SDS011;10764;50.850;2.904;2023-10-19T04:05:13;2.10;;;0.55;;
21213;SDS011;10764;50.850;2.904;2023-10-19T04:07:46;2.33;;;0.50;;
21213;SDS011;10764;50.850;2.904;2023-10-19T04:10:16;3.35;;;0.57;;
21213;SDS011;10764;50.850;2.904;2023-10-19T04:12:58;2.30;;;0.60;;
21213;SDS011;10764;50.850;2.904;2023-10-19T04:15:27;2.80;;;0.80;;
21213;SDS011;10764;50.850;2.904;2023-10-19T04:18:02;1.92;;;0.50;;
21213;SDS011;10764;50.850;2.904;2023-10-19T04:20:35;1.95;;;0.60;;
21213;SDS011;10764;50.850;2.904;2023-10-19T04:23:15;3.42;;;0.63;;
21213;SDS011;10764;50.850;2.904;2023-10-19T04:25:42;1.63;;;0.45;;
21213;SDS011;10764;50.850;2.904;2023-10-19T04:28:13;2.75;;;0.70;;
21213;SDS011;10764;50.850;2.904;2023-10-19T04:30:40;2.85;;;0.60;;
21213;SDS011;10764;50.850;2.904;2023-10-19T04:33:07;3.72;;;0.73;;
21213;SDS011;10764;50.850;2.904;2023-10-19T04:35:37;2.05;;;0.70;;
21213;SDS011;10764;50.850;2.904;2023-10-19T04:38:04;2.88;;;0.73;;
21213;SDS011;10764;50.850;2.904;2023-10-19T04:40:34;3.03;;;0.80;;
21213;SDS011;10764;50.850;2.904;2023-10-19T04:43:02;2.58;;;0.80;;
21213;SDS011;10764;50.850;2.904;2023-10-19T04:45:32;2.90;;;0.70;;
21213;SDS011;10764;50.850;2.904;2023-10-19T04:47:59;2.05;;;0.70;;
21213;SDS011;10764;50.850;2.904;2023-10-19T04:50:29;2.83;;;0.73;;
21213;SDS011;10764;50.850;2.904;2023-10-19T04:52:56;2.97;;;0.65;;
21213;SDS011;10764;50.850;2.904;2023-10-19T04:55:23;3.58;;;0.90;;
21213;SDS011;10764;50.850;2.904;2023-10-19T04:57:50;3.20;;;0.90;;
21213;SDS011;10764;50.850;2.904;2023-10-19T05:00:17;3.72;;;0.90;;
21213;SDS011;10764;50.850;2.904;2023-10-19T05:02:47;2.67;;;0.63;;
21213;SDS011;10764;50.850;2.904;2023-10-19T05:05:14;2.97;;;0.75;;
21213;SDS011;10764;50.850;2.904;2023-10-19T05:07:43;2.30;;;0.70;;
21213;SDS011;10764;50.850;2.904;2023-10-19T05:10:10;2.83;;;1.02;;
21213;SDS011;10764;50.850;2.904;2023-10-19T05:12:37;3.43;;;0.80;;
21213;SDS011;10764;50.850;2.904;2023-10-19T05:15:04;3.30;;;0.70;;
21213;SDS011;10764;50.850;2.904;2023-10-19T05:17:32;2.15;;;0.90;;
21213;SDS011;10764;50.850;2.904;2023-10-19T05:19:59;2.78;;;0.77;;
21213;SDS011;10764;50.850;2.904;2023-10-19T05:22:26;2.65;;;1.02;;
21213;SDS011;10764;50.850;2.904;2023-10-19T05:24:55;3.47;;;0.93;;
21213;SDS011;10764;50.850;2.904;2023-10-19T05:27:22;3.63;;;0.77;;
21213;SDS011;10764;50.850;2.904;2023-10-19T05:29:50;4.32;;;1.00;;
21213;SDS011;10764;50.850;2.904;2023-10-19T05:32:17;3.40;;;0.90;;
21213;SDS011;10764;50.850;2.904;2023-10-19T05:34:45;3.85;;;0.82;;
21213;SDS011;10764;50.850;2.904;2023-10-19T05:37:12;3.45;;;0.90;;
21213;SDS011;10764;50.850;2.904;2023-10-19T05:39:39;2.40;;;0.80;;
21213;SDS011;10764;50.850;2.904;2023-10-19T05:42:06;3.42;;;0.77;;
21213;SDS011;10764;50.850;2.904;2023-10-19T05:44:33;3.13;;;0.82;;
21213;SDS011;10764;50.850;2.904;2023-10-19T05:47:01;2.63;;;0.90;;
21213;SDS011;10764;50.850;2.904;2023-10-19T05:49:28;3.17;;;0.80;;
21213;SDS011;10764;50.850;2.904;2023-10-19T05:51:56;3.40;;;0.90;;
21213;SDS011;10764;50.850;2.904;2023-10-19T05:54:23;4.40;;;1.02;;
21213;SDS011;10764;50.850;2.904;2023-10-19T05:56:50;6.05;;;1.10;;
21213;SDS011;10764;50.850;2.904;2023-10-19T05:59:21;6.57;;;1.63;;
21213;SDS011;10764;50.850;2.904;2023-10-19T06:01:50;7.17;;;1.80;;
21213;SDS011;10764;50.850;2.904;2023-10-19T06:04:18;10.85;;;2.15;;
21213;SDS011;10764;50.850;2.904;2023-10-19T06:06:47;11.77;;;2.60;;
21213;SDS011;10764;50.850;2.904;2023-10-19T06:09:15;13.55;;;2.35;;
21213;SDS011;10764;50.850;2.904;2023-10-19T06:11:43;9.45;;;1.98;;
21213;SDS011;10764;50.850;2.904;2023-10-19T06:14:10;9.75;;;2.00;;
21213;SDS011;10764;50.850;2.904;2023-10-19T06:16:37;12.23;;;2.08;;
21213;SDS011;10764;50.850;2.904;2023-10-19T06:19:04;9.77;;;1.75;;
21213;SDS011;10764;50.850;2.904;2023-10-19T06:21:32;10.88;;;2.00;;
21213;SDS011;10764;50.850;2.904;2023-10-19T06:24:00;9.35;;;1.90;;
21213;SDS011;10764;50.850;2.904;2023-10-19T06:26:29;10.43;;;1.90;;
21213;SDS011;10764;50.850;2.904;2023-10-19T06:28:56;9.35;;;1.63;;
21213;SDS011;10764;50.850;2.904;2023-10-19T06:31:26;10.02;;;1.90;;
21213;SDS011;10764;50.850;2.904;2023-10-19T06:33:55;6.50;;;1.55;;
21213;SDS011;10764;50.850;2.904;2023-10-19T06:36:23;9.70;;;1.83;;
21213;SDS011;10764;50.850;2.904;2023-10-19T06:38:50;6.93;;;1.58;;
21213;SDS011;10764;50.850;2.904;2023-10-19T06:41:17;6.82;;;1.60;;
21213;SDS011;10764;50.850;2.904;2023-10-19T06:43:44;8.50;;;1.80;;
21213;SDS011;10764;50.850;2.904;2023-10-19T06:46:13;8.95;;;1.92;;
21213;SDS011;10764;50.850;2.904;2023-10-19T06:48:41;10.50;;;1.90;;
21213;SDS011;10764;50.850;2.904;2023-10-19T06:51:09;6.93;;;1.63;;
21213;SDS011;10764;50.850;2.904;2023-10-19T06:53:36;6.38;;;1.65;;
21213;SDS011;10764;50.850;2.904;2023-10-19T06:56:03;6.07;;;1.67;;
21213;SDS011;10764;50.850;2.904;2023-10-19T06:58:31;5.88;;;1.67;;
21213;SDS011;10764;50.850;2.904;2023-10-19T07:00:58;8.50;;;1.70;;
21213;SDS011;10764;50.850;2.904;2023-10-19T07:03:34;6.97;;;1.58;;
21213;SDS011;10764;50.850;2.904;2023-10-19T07:06:01;6.70;;;1.88;;
21213;SDS011;10764;50.850;2.904;2023-10-19T07:08:35;7.60;;;1.50;;
21213;SDS011;10764;50.850;2.904;2023-10-19T07:11:02;6.83;;;1.60;;
21213;SDS011;10764;50.850;2.904;2023-10-19T07:13:29;5.40;;;1.48;;
21213;SDS011;10764;50.850;2.904;2023-10-19T07:16:00;4.45;;;1.38;;
21213;SDS011;10764;50.850;2.904;2023-10-19T07:18:27;6.65;;;1.70;;
21213;SDS011;10764;50.850;2.904;2023-10-19T07:20:55;5.72;;;1.60;;
21213;SDS011;10764;50.850;2.904;2023-10-19T07:23:29;6.10;;;1.50;;
21213;SDS011;10764;50.850;2.904;2023-10-19T07:25:56;6.90;;;1.65;;
21213;SDS011;10764;50.850;2.904;2023-10-19T07:28:26;5.13;;;1.48;;
21213;SDS011;10764;50.850;2.904;2023-10-19T07:30:54;5.35;;;1.73;;
21213;SDS011;10764;50.850;2.904;2023-10-19T07:33:22;5.53;;;1.58;;
21213;SDS011;10764;50.850;2.904;2023-10-19T07:35:50;4.28;;;1.50;;
21213;SDS011;10764;50.850;2.904;2023-10-19T07:38:26;4.65;;;1.70;;
21213;SDS011;10764;50.850;2.904;2023-10-19T07:40:55;5.88;;;1.70;;
21213;SDS011;10764;50.850;2.904;2023-10-19T07:43:22;4.72;;;1.45;;
21213;SDS011;10764;50.850;2.904;2023-10-19T07:45:50;6.70;;;1.70;;
21213;SDS011;10764;50.850;2.904;2023-10-19T07:48:18;5.15;;;1.70;;
21213;SDS011;10764;50.850;2.904;2023-10-19T07:50:46;5.88;;;1.75;;
21213;SDS011;10764;50.850;2.904;2023-10-19T07:53:13;5.33;;;1.50;;
21213;SDS011;10764;50.850;2.904;2023-10-19T07:55:40;5.85;;;1.52;;
21213;SDS011;10764;50.850;2.904;2023-10-19T07:58:08;4.50;;;1.65;;
21213;SDS011;10764;50.850;2.904;2023-10-19T08:00:36;5.90;;;1.80;;
21213;SDS011;10764;50.850;2.904;2023-10-19T08:03:04;5.28;;;1.40;;
21213;SDS011;10764;50.850;2.904;2023-10-19T08:05:32;7.15;;;1.50;;
21213;SDS011;10764;50.850;2.904;2023-10-19T08:08:00;6.87;;;1.77;;
21213;SDS011;10764;50.850;2.904;2023-10-19T08:10:30;5.95;;;1.77;;
21213;SDS011;10764;50.850;2.904;2023-10-19T08:12:58;4.55;;;1.20;;
21213;SDS011;10764;50.850;2.904;2023-10-19T08:15:26;4.40;;;1.30;;
21213;SDS011;10764;50.850;2.904;2023-10-19T08:17:55;7.43;;;1.80;;
21213;SDS011;10764;50.850;2.904;2023-10-19T08:20:22;4.55;;;1.20;;
21213;SDS011;10764;50.850;2.904;2023-10-19T08:22:51;5.20;;;1.48;;
21213;SDS011;10764;50.850;2.904;2023-10-19T08:25:24;3.88;;;1.60;;
21213;SDS011;10764;50.850;2.904;2023-10-19T08:28:13;5.32;;;1.40;;
21213;SDS011;10764;50.850;2.904;2023-10-19T08:30:41;8.00;;;1.88;;
21213;SDS011;10764;50.850;2.904;2023-10-19T08:33:08;4.82;;;1.40;;
21213;SDS011;10764;50.850;2.904;2023-10-19T08:35:35;4.70;;;1.50;;
21213;SDS011;10764;50.850;2.904;2023-10-19T08:38:03;5.95;;;1.50;;
21213;SDS011;10764;50.850;2.904;2023-10-19T08:40:37;5.75;;;1.70;;
21213;SDS011;10764;50.850;2.904;2023-10-19T08:43:05;4.75;;;1.67;;
21213;SDS011;10764;50.850;2.904;2023-10-19T08:45:34;5.47;;;1.55;;
21213;SDS011;10764;50.850;2.904;2023-10-19T08:48:01;6.20;;;1.87;;
21213;SDS011;10764;50.850;2.904;2023-10-19T08:50:30;5.97;;;1.50;;
21213;SDS011;10764;50.850;2.904;2023-10-19T08:52:58;6.30;;;1.50;;
21213;SDS011;10764;50.850;2.904;2023-10-19T08:55:28;5.18;;;1.58;;
21213;SDS011;10764;50.850;2.904;2023-10-19T08:58:15;5.03;;;1.67;;
21213;SDS011;10764;50.850;2.904;2023-10-19T09:00:46;6.97;;;1.97;;
21213;SDS011;10764;50.850;2.904;2023-10-19T09:03:20;6.47;;;1.77;;
21213;SDS011;10764;50.850;2.904;2023-10-19T09:05:48;4.97;;;1.67;;
21213;SDS011;10764;50.850;2.904;2023-10-19T09:08:16;5.40;;;1.70;;
21213;SDS011;10764;50.850;2.904;2023-10-19T09:10:45;5.33;;;1.70;;
21213;SDS011;10764;50.850;2.904;2023-10-19T09:13:15;4.82;;;1.48;;
21213;SDS011;10764;50.850;2.904;2023-10-19T09:15:46;6.18;;;1.80;;
21213;SDS011;10764;50.850;2.904;2023-10-19T09:18:21;5.70;;;1.70;;
21213;SDS011;10764;50.850;2.904;2023-10-19T09:20:51;5.20;;;1.55;;
21213;SDS011;10764;50.850;2.904;2023-10-19T09:23:20;6.00;;;1.70;;
21213;SDS011;10764;50.850;2.904;2023-10-19T09:25:49;5.40;;;1.83;;
21213;SDS011;10764;50.850;2.904;2023-10-19T09:28:19;5.55;;;1.80;;
21213;SDS011;10764;50.850;2.904;2023-10-19T09:30:48;6.43;;;1.70;;
21213;SDS011;10764;50.850;2.904;2023-10-19T09:33:16;5.88;;;1.70;;
21213;SDS011;10764;50.850;2.904;2023-10-19T09:35:45;5.78;;;1.55;;
21213;SDS011;10764;50.850;2.904;2023-10-19T09:38:19;6.03;;;1.75;;
21213;SDS011;10764;50.850;2.904;2023-10-19T09:40:52;6.57;;;1.60;;
21213;SDS011;10764;50.850;2.904;2023-10-19T09:43:29;6.05;;;1.48;;
21213;SDS011;10764;50.850;2.904;2023-10-19T09:46:08;3.78;;;1.27;;
21213;SDS011;10764;50.850;2.904;2023-10-19T09:48:41;5.57;;;1.45;;
21213;SDS011;10764;50.850;2.904;2023-10-19T09:51:12;4.25;;;1.35;;
21213;SDS011;10764;50.850;2.904;2023-10-19T09:53:44;7.25;;;1.88;;
21213;SDS011;10764;50.850;2.904;2023-10-19T09:56:21;4.80;;;1.57;;
21213;SDS011;10764;50.850;2.904;2023-10-19T09:58:55;4.40;;;1.52;;
21213;SDS011;10764;50.850;2.904;2023-10-19T10:01:27;5.43;;;1.60;;
21213;SDS011;10764;50.850;2.904;2023-10-19T10:03:54;4.18;;;1.30;;
21213;SDS011;10764;50.850;2.904;2023-10-19T10:06:30;5.00;;;1.38;;
21213;SDS011;10764;50.850;2.904;2023-10-19T10:09:19;4.75;;;1.50;;
21213;SDS011;10764;50.850;2.904;2023-10-19T10:11:51;4.80;;;1.42;;
21213;SDS011;10764;50.850;2.904;2023-10-19T10:14:22;5.63;;;1.52;;
21213;SDS011;10764;50.850;2.904;2023-10-19T10:17:00;3.60;;;1.58;;
21213;SDS011;10764;50.850;2.904;2023-10-19T10:19:29;5.10;;;1.50;;
21213;SDS011;10764;50.850;2.904;2023-10-19T10:24:41;4.07;;;1.52;;
21213;SDS011;10764;50.850;2.904;2023-10-19T10:27:08;5.22;;;1.50;;
21213;SDS011;10764;50.850;2.904;2023-10-19T10:29:36;4.80;;;1.70;;
21213;SDS011;10764;50.850;2.904;2023-10-19T10:38:08;4.55;;;1.50;;
21213;SDS011;10764;50.850;2.904;2023-10-19T10:40:42;5.20;;;1.45;;
21213;SDS011;10764;50.850;2.904;2023-10-19T10:43:09;3.88;;;1.20;;
21213;SDS011;10764;50.850;2.904;2023-10-19T10:45:39;4.78;;;1.42;;
21213;SDS011;10764;50.850;2.904;2023-10-19T10:48:16;5.07;;;1.70;;
21213;SDS011;10764;50.850;2.904;2023-10-19T10:50:47;5.78;;;1.80;;
21213;SDS011;10764;50.850;2.904;2023-10-19T10:53:14;5.68;;;1.77;;
21213;SDS011;10764;50.850;2.904;2023-10-19T10:55:42;6.05;;;1.83;;
21213;SDS011;10764;50.850;2.904;2023-10-19T10:58:09;6.30;;;1.75;;
21213;SDS011;10764;50.850;2.904;2023-10-19T11:00:44;4.57;;;1.60;;
21213;SDS011;10764;50.850;2.904;2023-10-19T11:03:15;5.15;;;1.90;;
21213;SDS011;10764;50.850;2.904;2023-10-19T11:05:42;5.25;;;1.70;;
21213;SDS011;10764;50.850;2.904;2023-10-19T11:08:13;5.68;;;1.70;;
21213;SDS011;10764;50.850;2.904;2023-10-19T11:10:43;4.07;;;1.60;;
21213;SDS011;10764;50.850;2.904;2023-10-19T11:13:17;4.82;;;1.63;;
21213;SDS011;10764;50.850;2.904;2023-10-19T11:15:52;4.87;;;1.50;;
21213;SDS011;10764;50.850;2.904;2023-10-19T11:21:05;4.95;;;1.70;;
21213;SDS011;10764;50.850;2.904;2023-10-19T11:23:45;5.80;;;1.60;;
21213;SDS011;10764;50.850;2.904;2023-10-19T11:26:14;4.72;;;1.52;;
21213;SDS011;10764;50.850;2.904;2023-10-19T11:28:43;3.20;;;1.30;;
21213;SDS011;10764;50.850;2.904;2023-10-19T11:31:21;4.82;;;1.40;;
21213;SDS011;10764;50.850;2.904;2023-10-19T11:33:49;4.22;;;1.60;;
21213;SDS011;10764;50.850;2.904;2023-10-19T11:36:17;4.13;;;1.40;;
21213;SDS011;10764;50.850;2.904;2023-10-19T11:38:47;4.38;;;1.50;;
21213;SDS011;10764;50.850;2.904;2023-10-19T11:41:15;4.80;;;1.50;;
21213;SDS011;10764;50.850;2.904;2023-10-19T11:43:44;4.65;;;1.30;;
21213;SDS011;10764;50.850;2.904;2023-10-19T11:46:12;3.90;;;1.20;;
21213;SDS011;10764;50.850;2.904;2023-10-19T11:48:41;3.78;;;1.27;;
21213;SDS011;10764;50.850;2.904;2023-10-19T11:51:11;7.32;;;2.10;;
21213;SDS011;10764;50.850;2.904;2023-10-19T11:53:38;6.50;;;1.95;;
21213;SDS011;10764;50.850;2.904;2023-10-19T11:56:06;7.87;;;2.67;;
21213;SDS011;10764;50.850;2.904;2023-10-19T11:58:34;10.23;;;3.10;;
21213;SDS011;10764;50.850;2.904;2023-10-19T12:01:04;10.80;;;3.47;;
21213;SDS011;10764;50.850;2.904;2023-10-19T12:03:35;8.75;;;3.53;;
21213;SDS011;10764;50.850;2.904;2023-10-19T12:06:03;8.52;;;3.40;;
21213;SDS011;10764;50.850;2.904;2023-10-19T12:08:33;11.73;;;4.28;;
21213;SDS011;10764;50.850;2.904;2023-10-19T12:11:00;10.23;;;4.10;;
21213;SDS011;10764;50.850;2.904;2023-10-19T12:13:29;11.48;;;3.97;;
21213;SDS011;10764;50.850;2.904;2023-10-19T12:16:00;10.95;;;3.70;;
21213;SDS011;10764;50.850;2.904;2023-10-19T12:18:31;11.02;;;3.72;;
21213;SDS011;10764;50.850;2.904;2023-10-19T12:20:58;11.15;;;4.20;;
21213;SDS011;10764;50.850;2.904;2023-10-19T12:23:26;9.80;;;3.87;;
21213;SDS011;10764;50.850;2.904;2023-10-19T12:25:53;9.43;;;3.83;;
21213;SDS011;10764;50.850;2.904;2023-10-19T12:28:23;9.75;;;3.78;;
21213;SDS011;10764;50.850;2.904;2023-10-19T12:30:51;10.45;;;3.75;;
21213;SDS011;10764;50.850;2.904;2023-10-19T12:33:19;9.35;;;3.50;;
21213;SDS011;10764;50.850;2.904;2023-10-19T12:35:47;8.43;;;3.53;;
21213;SDS011;10764;50.850;2.904;2023-10-19T12:38:26;8.85;;;3.45;;
21213;SDS011;10764;50.850;2.904;2023-10-19T12:40:53;7.20;;;2.90;;
21213;SDS011;10764;50.850;2.904;2023-10-19T12:43:21;8.10;;;3.22;;
21213;SDS011;10764;50.850;2.904;2023-10-19T12:45:51;9.20;;;3.30;;
21213;SDS011;10764;50.850;2.904;2023-10-19T12:48:24;8.75;;;3.20;;
21213;SDS011;10764;50.850;2.904;2023-10-19T12:50:56;6.47;;;2.80;;
21213;SDS011;10764;50.850;2.904;2023-10-19T12:53:23;7.03;;;2.97;;
21213;SDS011;10764;50.850;2.904;2023-10-19T12:55:51;7.22;;;2.83;;
21213;SDS011;10764;50.850;2.904;2023-10-19T12:58:19;7.00;;;2.92;;
21213;SDS011;10764;50.850;2.904;2023-10-19T13:00:47;8.30;;;2.80;;
21213;SDS011;10764;50.850;2.904;2023-10-19T13:03:16;7.60;;;2.97;;
21213;SDS011;10764;50.850;2.904;2023-10-19T13:05:45;7.85;;;3.22;;
21213;SDS011;10764;50.850;2.904;2023-10-19T13:08:13;7.30;;;3.05;;
21213;SDS011;10764;50.850;2.904;2023-10-19T13:10:41;7.82;;;3.22;;
21213;SDS011;10764;50.850;2.904;2023-10-19T13:13:11;8.48;;;3.17;;
21213;SDS011;10764;50.850;2.904;2023-10-19T13:15:42;8.40;;;3.23;;
21213;SDS011;10764;50.850;2.904;2023-10-19T13:18:11;9.07;;;3.58;;
21213;SDS011;10764;50.850;2.904;2023-10-19T13:20:39;7.20;;;3.22;;
21213;SDS011;10764;50.850;2.904;2023-10-19T13:23:10;7.82;;;3.10;;
21213;SDS011;10764;50.850;2.904;2023-10-19T13:25:43;8.93;;;3.30;;
21213;SDS011;10764;50.850;2.904;2023-10-19T13:28:17;9.65;;;3.13;;
21213;SDS011;10764;50.850;2.904;2023-10-19T13:30:46;9.18;;;3.22;;
21213;SDS011;10764;50.850;2.904;2023-10-19T13:33:17;8.95;;;2.83;;
21213;SDS011;10764;50.850;2.904;2023-10-19T13:35:45;6.90;;;2.95;;
21213;SDS011;10764;50.850;2.904;2023-10-19T13:38:12;7.22;;;3.00;;
21213;SDS011;10764;50.850;2.904;2023-10-19T13:40:43;7.43;;;2.95;;
21213;SDS011;10764;50.850;2.904;2023-10-19T13:43:12;7.03;;;2.77;;
21213;SDS011;10764;50.850;2.904;2023-10-19T13:45:44;6.93;;;2.80;;
21213;SDS011;10764;50.850;2.904;2023-10-19T13:48:14;7.25;;;2.92;;
21213;SDS011;10764;50.850;2.904;2023-10-19T13:50:42;5.65;;;2.20;;
21213;SDS011;10764;50.850;2.904;2023-10-19T13:53:16;6.22;;;2.47;;
21213;SDS011;10764;50.850;2.904;2023-10-19T13:55:43;7.07;;;2.70;;
21213;SDS011;10764;50.850;2.904;2023-10-19T13:58:11;6.05;;;2.38;;
21213;SDS011;10764;50.850;2.904;2023-10-19T14:00:42;6.38;;;2.53;;
21213;SDS011;10764;50.850;2.904;2023-10-19T14:03:10;7.85;;;2.60;;
21213;SDS011;10764;50.850;2.904;2023-10-19T14:05:44;6.00;;;2.50;;
21213;SDS011;10764;50.850;2.904;2023-10-19T14:08:16;5.47;;;2.28;;
21213;SDS011;10764;50.850;2.904;2023-10-19T14:10:44;6.05;;;2.25;;
21213;SDS011;10764;50.850;2.904;2023-10-19T14:13:11;6.35;;;2.13;;
21213;SDS011;10764;50.850;2.904;2023-10-19T14:15:38;6.10;;;2.38;;
21213;SDS011;10764;50.850;2.904;2023-10-19T14:18:06;5.10;;;2.22;;
21213;SDS011;10764;50.850;2.904;2023-10-19T14:20:33;5.82;;;2.20;;
21213;SDS011;10764;50.850;2.904;2023-10-19T14:23:01;6.67;;;1.93;;
21213;SDS011;10764;50.850;2.904;2023-10-19T14:25:31;5.15;;;2.00;;
21213;SDS011;10764;50.850;2.904;2023-10-19T14:28:02;5.38;;;1.83;;
21213;SDS011;10764;50.850;2.904;2023-10-19T14:30:33;4.97;;;1.73;;
21213;SDS011;10764;50.850;2.904;2023-10-19T14:33:00;4.78;;;1.80;;
21213;SDS011;10764;50.850;2.904;2023-10-19T14:35:27;4.85;;;1.75;;
21213;SDS011;10764;50.850;2.904;2023-10-19T14:37:55;5.97;;;2.10;;
21213;SDS011;10764;50.850;2.904;2023-10-19T14:40:26;5.25;;;1.90;;
21213;SDS011;10764;50.850;2.904;2023-10-19T14:42:55;4.35;;;1.95;;
21213;SDS011;10764;50.850;2.904;2023-10-19T14:45:24;5.15;;;1.77;;
21213;SDS011;10764;50.850;2.904;2023-10-19T14:47:53;4.72;;;1.70;;
21213;SDS011;10764;50.850;2.904;2023-10-19T14:50:30;5.38;;;1.92;;
21213;SDS011;10764;50.850;2.904;2023-10-19T14:52:58;4.35;;;1.63;;
21213;SDS011;10764;50.850;2.904;2023-10-19T14:55:25;5.28;;;1.98;;
21213;SDS011;10764;50.850;2.904;2023-10-19T14:57:53;5.63;;;1.83;;
21213;SDS011;10764;50.850;2.904;2023-10-19T15:00:22;4.67;;;1.80;;
21213;SDS011;10764;50.850;2.904;2023-10-19T15:03:08;4.40;;;1.80;;
21213;SDS011;10764;50.850;2.904;2023-10-19T15:05:36;3.90;;;1.43;;
21213;SDS011;10764;50.850;2.904;2023-10-19T15:08:04;3.33;;;1.30;;
21213;SDS011;10764;50.850;2.904;2023-10-19T15:10:33;4.03;;;1.55;;
21213;SDS011;10764;50.850;2.904;2023-10-19T15:13:01;4.10;;;1.42;;
21213;SDS011;10764;50.850;2.904;2023-10-19T15:15:29;3.05;;;1.38;;
21213;SDS011;10764;50.850;2.904;2023-10-19T15:17:56;3.33;;;1.40;;
21213;SDS011;10764;50.850;2.904;2023-10-19T15:20:25;3.47;;;1.30;;